createdAt,value
2022-09-05T00:02:02.667Z,8.95
2022-09-05T00:05:04.407Z,8.93
2022-09-05T00:07:58.929Z,8.88
2022-09-05T00:11:08.538Z,8.86
2022-09-05T00:13:47.063Z,8.82
2022-09-05T00:16:52.414Z,8.81
2022-09-05T00:24:19.855Z,8.78
2022-09-05T00:24:27.843Z,8.77
2022-09-05T00:25:50.715Z,8.74
2022-09-05T00:28:25.888Z,8.74
2022-09-05T00:31:55.223Z,8.73
2022-09-05T00:34:18.425Z,8.71
2022-09-05T00:36:55.685Z,8.71
2022-09-05T00:39:32.276Z,8.70
2022-09-05T00:42:07.825Z,8.68
2022-09-05T00:44:52.064Z,8.63
2022-09-05T00:47:41.880Z,8.61
2022-09-05T00:50:30.246Z,8.57
2022-09-05T00:53:10.956Z,8.59
2022-09-05T00:56:01.579Z,8.59
2022-09-05T00:58:37.500Z,8.58
2022-09-05T01:01:22.550Z,8.54
2022-09-05T01:04:46.761Z,8.49
2022-09-05T01:07:57.564Z,8.43
2022-09-05T01:10:57.881Z,8.44
2022-09-05T01:13:44.621Z,8.42
2022-09-05T01:16:36.062Z,8.39
2022-09-05T01:19:06.004Z,8.38
2022-09-05T01:21:51.336Z,8.37
2022-09-05T01:24:42.154Z,8.35
2022-09-05T01:28:27.687Z,8.35
2022-09-05T01:30:31.763Z,8.33
2022-09-05T01:33:25.492Z,8.30
2022-09-05T01:36:19.425Z,8.30
2022-09-05T01:40:10.671Z,8.28
2022-09-05T01:42:40.579Z,8.29
2022-09-05T01:45:16.693Z,8.25
2022-09-05T01:48:05.246Z,8.19
2022-09-05T01:51:28.273Z,8.17
2022-09-05T01:54:24.143Z,8.17
2022-09-05T01:57:01.874Z,8.16
2022-09-05T01:59:48.467Z,8.23
2022-09-05T02:02:26.856Z,8.24
2022-09-05T02:05:47.462Z,8.28
2022-09-05T02:08:16.455Z,8.29
2022-09-05T02:10:55.602Z,8.27
2022-09-05T02:13:34.722Z,8.24
2022-09-05T02:16:02.005Z,8.21
2022-09-05T02:19:02.170Z,8.23
2022-09-05T02:21:56.889Z,8.24
2022-09-05T02:24:27.578Z,8.24
2022-09-05T02:28:03.803Z,8.26
2022-09-05T02:30:19.538Z,8.29
2022-09-05T02:33:17.099Z,8.28
2022-09-05T02:35:55.230Z,8.34
2022-09-05T02:45:03.003Z,8.43
2022-09-05T02:45:14.496Z,8.53
2022-09-05T02:45:24.142Z,8.58
2022-09-05T02:48:08.311Z,8.62
2022-09-05T02:57:29.248Z,8.66
2022-09-05T02:57:34.404Z,8.72
2022-09-05T02:58:07.782Z,8.78
2022-09-05T03:00:20.751Z,8.86
2022-09-05T03:03:24.838Z,8.93
2022-09-05T03:05:59.999Z,8.99
2022-09-05T03:08:46.128Z,9.03
2022-09-05T03:11:23.103Z,9.11
2022-09-05T03:14:26.833Z,9.22
2022-09-05T03:17:15.537Z,9.27
2022-09-05T03:19:54.724Z,9.34
2022-09-05T03:22:56.701Z,9.39
2022-09-05T03:25:54.663Z,9.42
2022-09-05T03:28:46.347Z,9.44
2022-09-05T03:31:26.167Z,9.49
2022-09-05T03:33:59.051Z,9.59
2022-09-05T03:36:44.952Z,9.67
2022-09-05T03:39:31.148Z,9.71
2022-09-05T03:42:30.360Z,9.82
2022-09-05T03:45:34.970Z,9.83
2022-09-05T03:48:34.640Z,9.86
2022-09-05T03:57:06.847Z,9.85
2022-09-05T03:57:17.972Z,9.89
2022-09-05T03:57:54.088Z,9.92
2022-09-05T04:00:36.516Z,9.95
2022-09-05T04:08:07.190Z,9.94
2022-09-05T04:08:15.655Z,9.99
2022-09-05T04:09:08.406Z,10.04
2022-09-05T04:11:40.080Z,10.04
2022-09-05T04:14:09.439Z,10.11
2022-09-05T04:16:58.389Z,10.17
2022-09-05T04:19:41.345Z,10.26
2022-09-05T04:22:46.926Z,10.34
2022-09-05T04:25:34.843Z,10.39
2022-09-05T04:28:43.581Z,10.39
2022-09-05T04:31:25.537Z,10.45
2022-09-05T04:34:17.262Z,10.53
2022-09-05T04:36:45.413Z,10.57
2022-09-05T04:39:18.314Z,10.62
2022-09-05T04:41:50.825Z,10.69
2022-09-05T04:44:25.185Z,10.78
2022-09-05T04:46:58.463Z,10.81
2022-09-05T04:49:30.582Z,10.86
2022-09-05T04:52:30.348Z,10.92
2022-09-05T04:55:15.911Z,11.03
2022-09-05T04:58:07.350Z,11.02
2022-09-05T05:05:58.627Z,11.03
2022-09-05T05:06:12.754Z,11.14
2022-09-05T05:06:44.899Z,11.38
2022-09-05T05:09:32.536Z,11.56
2022-09-05T05:17:49.316Z,11.86
2022-09-05T05:18:01.986Z,12.25
2022-09-05T05:18:37.632Z,12.66
2022-09-05T05:21:27.942Z,13.37
2022-09-05T05:24:02.342Z,13.94
2022-09-05T05:26:45.224Z,14.27
2022-09-05T05:29:49.359Z,15.01
2022-09-05T05:32:34.570Z,15.35
2022-09-05T05:35:30.680Z,15.59
2022-09-05T05:38:18.006Z,15.56
2022-09-05T05:40:51.525Z,15.38
2022-09-05T05:43:27.396Z,15.26
2022-09-05T05:45:59.845Z,15.10
2022-09-05T05:48:39.800Z,15.06
2022-09-05T05:51:53.365Z,15.07
2022-09-05T05:54:50.465Z,15.05
2022-09-05T05:57:23.934Z,14.99
2022-09-05T06:00:16.459Z,14.99
2022-09-05T06:03:13.566Z,15.07
2022-09-05T06:06:07.756Z,15.37
2022-09-05T06:14:48.389Z,15.63
2022-09-05T06:15:02.365Z,16.04
2022-09-05T06:15:17.811Z,16.34
2022-09-05T06:18:14.336Z,16.51
2022-09-05T06:22:10.457Z,16.46
2022-09-05T06:24:46.819Z,16.33
2022-09-05T06:28:18.344Z,16.26
2022-09-05T06:31:30.918Z,16.23
2022-09-05T06:34:08.065Z,16.35
2022-09-05T06:36:58.136Z,16.54
2022-09-05T06:39:31.296Z,16.72
2022-09-05T06:42:04.383Z,17.00
2022-09-05T06:45:06.468Z,17.43
2022-09-05T06:47:56.919Z,17.78
2022-09-05T06:50:48.205Z,17.82
2022-09-05T06:53:49.922Z,17.84
2022-09-05T06:56:25.850Z,17.92
2022-09-05T06:59:51.219Z,18.09
2022-09-05T07:03:00.630Z,18.16
2022-09-05T07:05:40.397Z,18.62
2022-09-05T07:08:34.658Z,19.14
2022-09-05T07:11:16.539Z,20.41
2022-09-05T07:13:45.711Z,21.05
2022-09-05T07:16:37.659Z,21.32
2022-09-05T07:19:17.616Z,21.61
2022-09-05T07:22:02.998Z,22.07
2022-09-05T07:24:54.545Z,21.96
2022-09-05T07:28:28.555Z,21.99
2022-09-05T07:30:55.740Z,21.88
2022-09-05T07:33:29.171Z,23.16
2022-09-05T07:36:09.420Z,22.99
2022-09-05T07:38:52.560Z,21.99
2022-09-05T07:41:25.514Z,21.08
2022-09-05T07:44:00.463Z,20.29
2022-09-05T07:46:37.530Z,19.71
2022-09-05T07:49:17.139Z,19.19
2022-09-05T07:56:51.884Z,18.61
2022-09-05T07:57:10.577Z,17.95
2022-09-05T07:58:12.619Z,17.34
2022-09-05T08:00:42.907Z,16.93
2022-09-05T08:03:14.971Z,16.64
2022-09-05T08:05:52.829Z,16.32
2022-09-05T08:08:27.703Z,16.09
2022-09-05T08:11:23.362Z,15.91
2022-09-05T08:13:51.878Z,15.78
2022-09-05T08:16:23.266Z,15.63
2022-09-05T08:18:54.774Z,15.57
2022-09-05T08:21:46.821Z,15.65
2022-09-05T08:24:37.608Z,15.75
2022-09-05T08:27:19.068Z,15.95
2022-09-05T08:30:25.974Z,16.29
2022-09-05T08:32:49.610Z,16.93
2022-09-05T08:35:28.163Z,17.00
2022-09-05T08:37:58.143Z,16.81
2022-09-05T08:40:36.147Z,16.71
2022-09-05T08:46:37.030Z,16.61
2022-09-05T08:46:40.232Z,16.47
2022-09-05T08:49:37.833Z,16.44
2022-09-05T08:52:16.537Z,16.47
2022-09-05T08:55:20.881Z,16.51
2022-09-05T08:58:23.398Z,16.48
2022-09-05T09:01:05.523Z,16.42
2022-09-05T09:04:00.510Z,16.32
2022-09-05T09:07:12.253Z,16.17
2022-09-05T09:09:46.011Z,16.08
2022-09-05T09:12:28.662Z,16.01
2022-09-05T09:15:03.563Z,15.96
2022-09-05T09:17:44.212Z,15.84
2022-09-05T09:20:33.653Z,15.81
2022-09-05T09:23:30.411Z,15.81
2022-09-05T09:26:18.678Z,15.91
2022-09-05T09:29:07.153Z,16.05
2022-09-05T09:31:51.733Z,16.16
2022-09-05T09:34:25.566Z,16.24
2022-09-05T09:37:15.066Z,16.31
2022-09-05T09:40:14.655Z,16.42
2022-09-05T09:43:22.799Z,16.53
2022-09-05T09:46:01.873Z,16.54
2022-09-05T09:48:31.959Z,16.47
2022-09-05T09:51:12.365Z,16.28
2022-09-05T09:53:58.277Z,16.23
2022-09-05T09:56:52.487Z,16.06
2022-09-05T09:59:57.098Z,15.99
2022-09-05T10:10:35.111Z,16.03
2022-09-05T10:10:36.454Z,15.97
2022-09-05T10:10:43.935Z,15.98
2022-09-05T10:13:08.850Z,15.87
2022-09-05T10:16:07.490Z,15.70
2022-09-05T10:18:54.581Z,15.52
2022-09-05T10:21:45.170Z,15.33
2022-09-05T10:24:37.133Z,15.29
2022-09-05T10:27:31.269Z,15.35
2022-09-05T10:30:12.285Z,15.43
2022-09-05T10:35:04.611Z,15.38
2022-09-05T10:35:37.763Z,15.28
2022-09-05T10:38:12.626Z,15.14
2022-09-05T10:40:46.345Z,15.04
2022-09-05T10:43:38.943Z,14.93
2022-09-05T10:46:48.923Z,14.81
2022-09-05T10:49:13.907Z,14.73
2022-09-05T10:52:18.368Z,14.61
2022-09-05T10:55:18.630Z,14.58
2022-09-05T10:58:26.795Z,14.60
2022-09-05T11:02:30.219Z,14.70
2022-09-05T11:05:05.147Z,14.81
2022-09-05T11:07:49.251Z,14.91
2022-09-05T11:10:45.082Z,15.03
2022-09-05T11:13:30.991Z,15.14
2022-09-05T11:16:16.784Z,15.20
2022-09-05T11:18:55.479Z,15.27
2022-09-05T11:21:31.252Z,15.35
2022-09-05T11:24:07.380Z,15.43
2022-09-05T11:26:42.523Z,15.37
2022-09-05T11:29:14.499Z,15.19
2022-09-05T11:32:29.025Z,15.00
2022-09-05T11:39:46.113Z,14.98
2022-09-05T11:40:07.459Z,15.22
2022-09-05T11:41:19.479Z,15.60
2022-09-05T11:44:25.599Z,15.94
2022-09-05T11:47:44.399Z,16.02
2022-09-05T11:50:46.642Z,16.03
2022-09-05T11:53:38.298Z,16.08
2022-09-05T11:56:44.098Z,16.10
2022-09-05T11:59:32.831Z,16.00
2022-09-05T12:02:39.409Z,15.85
2022-09-05T12:05:50.430Z,15.95
2022-09-05T12:08:05.658Z,16.10
2022-09-05T12:10:58.913Z,16.34
2022-09-05T12:18:19.300Z,16.55
2022-09-05T12:21:19.392Z,16.53
2022-09-05T12:24:13.665Z,16.73
2022-09-05T12:29:46.840Z,16.77
2022-09-05T12:35:15.595Z,16.79
2022-09-05T12:36:06.805Z,16.79
2022-09-05T12:40:56.915Z,16.60
2022-09-05T12:41:41.714Z,16.75
2022-09-05T12:41:44.855Z,16.48
2022-09-05T12:44:45.930Z,16.36
2022-09-05T12:47:23.084Z,16.27
2022-09-05T12:50:15.481Z,16.22
2022-09-05T12:52:50.970Z,16.31
2022-09-05T12:55:33.579Z,16.34
2022-09-05T13:02:57.552Z,16.40
2022-09-05T13:03:13.877Z,16.36
2022-09-05T13:04:30.184Z,16.33
2022-09-05T13:07:05.772Z,16.27
2022-09-05T13:10:39.432Z,16.12
2022-09-05T13:14:48.321Z,16.00
2022-09-05T13:15:37.387Z,15.96
2022-09-05T13:18:17.113Z,16.02
2022-09-05T13:20:51.700Z,16.10
2022-09-05T13:23:26.913Z,16.12
2022-09-05T13:26:08.130Z,16.05
2022-09-05T13:38:03.041Z,15.58
2022-09-05T13:38:03.576Z,15.68
2022-09-05T13:38:06.456Z,15.43
2022-09-05T13:40:20.423Z,15.37
2022-09-05T13:43:05.146Z,15.21
2022-09-05T13:45:42.240Z,15.15
2022-09-05T13:48:30.346Z,15.11
2022-09-05T13:51:15.994Z,15.03
2022-09-05T13:54:07.458Z,14.97
2022-09-05T13:56:41.874Z,14.90
2022-09-05T13:59:24.272Z,14.78
2022-09-05T14:02:25.955Z,14.65
2022-09-05T14:05:05.796Z,14.56
2022-09-05T14:07:59.599Z,14.53
2022-09-05T14:10:50.076Z,14.52
2022-09-05T14:13:24.497Z,14.47
2022-09-05T14:16:04.573Z,14.45
2022-09-05T14:19:07.909Z,14.45
2022-09-05T14:21:38.860Z,14.51
2022-09-05T14:24:14.496Z,14.47
2022-09-05T14:26:50.233Z,14.49
2022-09-05T14:29:22.246Z,14.47
2022-09-05T14:36:40.683Z,14.44
2022-09-05T14:37:41.131Z,14.40
2022-09-05T14:38:15.121Z,14.33
2022-09-05T14:41:20.567Z,14.29
2022-09-05T14:44:19.598Z,14.27
2022-09-05T14:46:56.096Z,14.21
2022-09-05T14:49:40.649Z,14.14
2022-09-05T14:52:30.127Z,14.07
2022-09-05T15:02:45.296Z,14.01
2022-09-05T15:03:00.809Z,13.97
2022-09-05T15:06:32.959Z,13.93
2022-09-05T15:11:47.241Z,13.93
2022-09-05T15:12:15.728Z,13.90
2022-09-05T15:14:46.145Z,13.82
2022-09-05T15:17:23.537Z,13.80
2022-09-05T15:20:05.245Z,13.78
2022-09-05T15:22:37.418Z,13.74
2022-09-05T15:25:17.336Z,13.71
2022-09-05T15:27:46.487Z,13.66
2022-09-05T15:30:19.510Z,13.65
2022-09-05T15:32:50.704Z,13.62
2022-09-05T15:35:35.762Z,13.52
2022-09-05T15:38:54.249Z,13.48
2022-09-05T15:41:27.796Z,13.43
2022-09-05T15:44:02.964Z,13.38
2022-09-05T15:46:49.421Z,13.33
2022-09-05T15:49:51.949Z,13.24
2022-09-05T15:52:19.190Z,13.25
2022-09-05T15:54:49.908Z,13.19
2022-09-05T15:57:33.689Z,13.13
2022-09-05T16:02:50.040Z,12.98
2022-09-05T16:10:04.079Z,12.84
2022-09-05T16:10:35.226Z,12.72
2022-09-05T16:14:24.511Z,12.51
2022-09-05T16:23:18.356Z,12.42
2022-09-05T16:23:28.533Z,12.38
2022-09-05T16:23:33.475Z,12.39
2022-09-05T16:25:50.603Z,12.32
2022-09-05T16:28:31.803Z,12.29
2022-09-05T16:31:15.710Z,12.24
2022-09-05T16:33:43.804Z,12.26
2022-09-05T16:36:19.430Z,12.28
2022-09-05T16:38:57.244Z,12.25
2022-09-05T16:41:44.276Z,12.28
2022-09-05T16:44:35.661Z,12.26
2022-09-05T16:47:23.335Z,12.36
2022-09-05T16:50:02.782Z,12.32
2022-09-05T16:53:28.227Z,12.40
2022-09-05T16:56:16.690Z,12.42
2022-09-05T16:58:49.282Z,12.40
2022-09-05T17:01:28.005Z,12.38
2022-09-05T17:04:20.004Z,12.38
2022-09-05T17:06:55.508Z,12.40
2022-09-05T17:09:38.945Z,12.40
2022-09-05T17:12:15.870Z,12.41
2022-09-05T17:15:19.495Z,12.42
2022-09-05T17:18:20.120Z,12.42
2022-09-05T17:20:49.973Z,12.46
2022-09-05T17:27:09.124Z,12.44
2022-09-05T17:29:31.920Z,12.52
2022-09-05T17:29:34.130Z,12.48
2022-09-05T17:31:57.469Z,12.40
2022-09-05T17:34:47.601Z,12.34
2022-09-05T17:37:36.322Z,12.22
2022-09-05T17:40:49.378Z,12.21
2022-09-05T17:43:29.097Z,12.22
2022-09-05T17:46:17.656Z,12.20
2022-09-05T17:49:06.046Z,12.18
2022-09-05T17:51:34.788Z,12.10
2022-09-05T17:54:16.201Z,12.07
2022-09-05T17:56:45.633Z,12.07
2022-09-05T17:59:15.768Z,12.14
2022-09-05T18:02:05.703Z,12.13
2022-09-05T18:04:49.471Z,12.17
2022-09-05T18:07:19.772Z,12.15
2022-09-05T18:10:15.377Z,12.16
2022-09-05T18:13:31.853Z,12.18
2022-09-05T18:15:59.268Z,12.21
2022-09-05T18:21:42.413Z,12.17
2022-09-05T18:24:36.541Z,12.12
2022-09-05T18:28:04.572Z,11.96
2022-09-05T18:30:45.607Z,12.00
2022-09-05T18:33:53.687Z,11.85
2022-09-05T18:36:25.434Z,11.77
2022-09-05T18:39:37.215Z,11.79
2022-09-05T18:42:34.319Z,11.81
2022-09-05T18:45:28.707Z,11.77
2022-09-05T18:48:10.916Z,11.78
2022-09-05T18:50:44.494Z,11.79
2022-09-05T18:53:20.633Z,11.80
2022-09-05T18:59:35.087Z,11.87
2022-09-05T19:02:58.642Z,11.79
2022-09-05T19:05:41.148Z,11.85
2022-09-05T19:08:31.095Z,11.87
2022-09-05T19:11:26.923Z,11.83
2022-09-05T19:14:18.286Z,11.84
2022-09-05T19:16:49.374Z,11.88
2022-09-05T19:19:24.754Z,11.90
2022-09-05T19:22:33.234Z,11.94
2022-09-05T19:24:47.801Z,11.92
2022-09-05T19:31:58.129Z,11.94
2022-09-05T19:36:47.313Z,11.94
2022-09-05T19:36:57.701Z,11.96
2022-09-05T19:36:57.702Z,11.96
2022-09-05T19:39:40.536Z,11.98
2022-09-05T19:47:30.510Z,11.87
2022-09-05T19:47:38.380Z,11.87
2022-09-05T19:48:06.112Z,11.85
2022-09-05T19:50:35.184Z,11.79
2022-09-05T19:53:06.539Z,11.88
2022-09-05T19:55:36.922Z,11.89
2022-09-05T19:58:19.477Z,11.87
2022-09-05T20:01:00.735Z,11.89
2022-09-05T20:03:39.575Z,11.85
2022-09-05T20:10:05.084Z,11.69
2022-09-05T20:12:37.786Z,11.76
2022-09-05T20:15:35.932Z,11.81
2022-09-05T20:18:43.310Z,11.83
2022-09-05T20:21:14.877Z,11.80
2022-09-05T20:23:51.598Z,11.77
2022-09-05T20:26:22.591Z,11.81
2022-09-05T20:28:54.707Z,11.78
2022-09-05T20:31:27.283Z,11.72
2022-09-05T20:34:00.624Z,11.65
2022-09-05T20:43:14.666Z,11.61
2022-09-05T20:43:18.014Z,11.60
2022-09-05T20:43:31.634Z,11.65
2022-09-05T20:46:44.978Z,11.65
2022-09-05T20:54:13.550Z,11.61
2022-09-05T20:54:21.961Z,11.64
2022-09-05T20:54:42.464Z,11.62
2022-09-05T20:57:19.274Z,11.66
2022-09-05T20:59:47.519Z,11.69
2022-09-05T21:02:27.414Z,11.69
2022-09-05T21:05:20.750Z,11.67
2022-09-05T21:08:07.060Z,11.53
2022-09-05T21:10:55.254Z,11.51
2022-09-05T21:13:27.186Z,11.46
2022-09-05T21:15:55.571Z,11.42
2022-09-05T21:18:33.561Z,11.39
2022-09-05T21:21:02.792Z,11.44
2022-09-05T21:23:41.846Z,11.47
2022-09-05T21:26:25.370Z,11.45
2022-09-05T21:29:13.522Z,11.40
2022-09-05T21:31:49.225Z,11.34
2022-09-05T21:34:31.436Z,11.39
2022-09-05T21:37:06.859Z,11.37
2022-09-05T21:39:40.312Z,11.31
2022-09-05T21:44:02.832Z,11.27
2022-09-05T21:47:39.762Z,11.24
2022-09-05T21:47:54.104Z,11.22
2022-09-05T21:50:31.303Z,11.24
2022-09-05T21:53:37.919Z,11.26
2022-09-05T21:59:18.832Z,11.26
2022-09-05T21:59:25.914Z,11.24
2022-09-05T22:01:51.124Z,11.19
2022-09-05T22:04:15.425Z,11.21
2022-09-05T22:06:48.643Z,11.22
2022-09-05T22:09:18.095Z,11.24
2022-09-05T22:11:50.588Z,11.26
2022-09-05T22:14:23.650Z,11.24
2022-09-05T22:16:55.012Z,11.18
2022-09-05T22:19:37.287Z,11.17
2022-09-05T22:22:17.446Z,11.17
2022-09-05T22:24:50.621Z,11.15
2022-09-05T22:27:20.226Z,11.18
2022-09-05T22:29:51.892Z,11.21
2022-09-05T22:32:34.726Z,11.21
2022-09-05T22:35:27.774Z,11.20
2022-09-05T22:37:55.279Z,11.20
2022-09-05T22:40:29.072Z,11.22
2022-09-05T22:43:01.286Z,11.21
2022-09-05T22:45:30.283Z,11.21
2022-09-05T22:47:58.650Z,11.21
2022-09-05T22:50:26.445Z,11.19
2022-09-05T22:52:53.495Z,11.20
2022-09-05T22:55:20.800Z,11.25
2022-09-05T22:57:48.721Z,11.23
2022-09-05T23:00:16.152Z,11.23
2022-09-05T23:02:43.294Z,11.24
2022-09-05T23:05:10.522Z,11.21
2022-09-05T23:07:37.841Z,11.13
2022-09-05T23:10:05.310Z,11.13
2022-09-05T23:12:36.927Z,11.08
2022-09-05T23:15:04.459Z,11.01
2022-09-05T23:17:31.744Z,10.97
2022-09-05T23:19:59.094Z,10.88
2022-09-05T23:22:26.288Z,10.84
2022-09-05T23:24:53.336Z,10.86
2022-09-05T23:27:20.381Z,10.87
2022-09-05T23:29:47.444Z,10.94
2022-09-05T23:32:14.764Z,10.95
2022-09-05T23:34:42.290Z,10.98
2022-09-05T23:37:09.336Z,11.02
2022-09-05T23:39:37.270Z,10.98
2022-09-05T23:42:04.389Z,10.92
2022-09-05T23:44:31.541Z,10.88
2022-09-05T23:46:58.857Z,10.78
2022-09-05T23:49:25.891Z,10.72
2022-09-05T23:52:00.363Z,10.72
2022-09-05T23:54:27.649Z,10.71
2022-09-05T23:56:54.942Z,10.67
2022-09-05T23:59:21.849Z,10.56
